createdAt,value
2023-03-13T00:01:34.877Z,95569.50
2023-03-13T00:04:03.021Z,95590.75
2023-03-13T00:06:33.317Z,95592.91
2023-03-13T00:09:02.173Z,95588.63
2023-03-13T00:11:30.536Z,95584.63
2023-03-13T00:13:59.625Z,95592.09
2023-03-13T00:16:28.723Z,95596.06
2023-03-13T00:18:59.302Z,95594.47
2023-03-13T00:21:29.481Z,95600.88
2023-03-13T00:23:59.236Z,95446.34
2023-03-13T00:26:31.254Z,95610.44
2023-03-13T00:28:59.362Z,95600.34
2023-03-13T00:31:29.184Z,95557.88
2023-03-13T00:33:59.858Z,95610.97
2023-03-13T00:36:29.685Z,95572.19
2023-03-13T00:38:58.373Z,95604.63
2023-03-13T00:41:28.070Z,95613.91
2023-03-13T00:43:56.386Z,95608.06
2023-03-13T00:46:26.451Z,95597.19
2023-03-13T00:48:54.849Z,95548.03
2023-03-13T00:51:26.995Z,95596.91
2023-03-13T00:53:55.430Z,95600.63
2023-03-13T00:56:26.014Z,95568.47
2023-03-13T00:58:54.290Z,95554.13
2023-03-13T01:01:24.749Z,95569.56
2023-03-13T01:03:54.676Z,95445.25
2023-03-13T01:06:26.308Z,95590.00
2023-03-13T01:08:54.548Z,95508.72
2023-03-13T01:11:24.471Z,95594.50
2023-03-13T01:13:55.664Z,95517.22
2023-03-13T01:16:24.614Z,95599.03
2023-03-13T01:18:54.794Z,95600.63
2023-03-13T01:21:27.716Z,95590.81
2023-03-13T01:23:57.921Z,95542.41
2023-03-13T01:26:26.521Z,95506.84
2023-03-13T01:28:54.492Z,95604.06
2023-03-13T01:31:24.183Z,95592.94
2023-03-13T01:33:54.838Z,95597.44
2023-03-13T01:36:24.526Z,95609.38
2023-03-13T01:38:54.461Z,95616.03
2023-03-13T01:41:23.713Z,95582.78
2023-03-13T01:43:52.405Z,95613.53
2023-03-13T01:46:21.756Z,95623.56
2023-03-13T01:48:54.107Z,95579.84
2023-03-13T01:51:27.129Z,95624.22
2023-03-13T01:54:01.342Z,95624.44
2023-03-13T01:56:35.742Z,95633.41
2023-03-13T01:59:05.704Z,95620.16
2023-03-13T02:01:34.264Z,95627.00
2023-03-13T02:04:02.690Z,95573.19
2023-03-13T02:06:35.771Z,95633.81
2023-03-13T02:09:07.685Z,95623.41
2023-03-13T02:11:45.160Z,95610.91
2023-03-13T02:14:13.937Z,95633.91
2023-03-13T02:16:47.746Z,95637.31
2023-03-13T02:19:20.786Z,95643.16
2023-03-13T02:21:56.598Z,95641.53
2023-03-13T02:24:32.872Z,95646.03
2023-03-13T02:27:02.216Z,95632.53
2023-03-13T02:29:30.502Z,95658.78
2023-03-13T02:31:58.458Z,95617.72
2023-03-13T02:34:31.446Z,95665.13
2023-03-13T02:37:00.475Z,95666.50
2023-03-13T02:39:31.613Z,95679.22
2023-03-13T02:42:01.276Z,95682.94
2023-03-13T02:44:30.649Z,95686.41
2023-03-13T02:46:58.702Z,95642.16
2023-03-13T02:49:28.903Z,95701.41
2023-03-13T02:51:59.521Z,95669.13
2023-03-13T02:54:34.281Z,95700.84
2023-03-13T02:57:05.031Z,95615.44
2023-03-13T02:59:35.575Z,95624.13
2023-03-13T03:02:03.455Z,95696.59
2023-03-13T03:04:34.053Z,95633.13
2023-03-13T03:07:02.122Z,95689.22
2023-03-13T03:09:29.962Z,95692.06
2023-03-13T03:11:57.871Z,95698.28
2023-03-13T03:14:25.834Z,95701.91
2023-03-13T03:16:55.084Z,95708.34
2023-03-13T03:19:22.994Z,95711.53
2023-03-13T03:21:50.864Z,95715.50
2023-03-13T03:24:20.135Z,95727.69
2023-03-13T03:26:48.141Z,95727.78
2023-03-13T03:29:15.973Z,95736.06
2023-03-13T03:31:43.877Z,95736.19
2023-03-13T03:34:13.202Z,95746.19
2023-03-13T03:36:41.551Z,95733.59
2023-03-13T03:39:09.414Z,95734.63
2023-03-13T03:41:37.539Z,95741.94
2023-03-13T03:44:05.964Z,95745.38
2023-03-13T03:46:34.247Z,95756.06
2023-03-13T03:49:02.231Z,95774.13
2023-03-13T03:51:31.656Z,95744.19
2023-03-13T03:53:59.760Z,95772.28
2023-03-13T03:56:27.637Z,95751.69
2023-03-13T03:58:55.506Z,95758.06
2023-03-13T04:01:23.375Z,95766.41
2023-03-13T04:03:51.229Z,95782.94
2023-03-13T04:06:21.727Z,95775.00
2023-03-13T04:08:52.390Z,95750.94
2023-03-13T04:11:20.288Z,95775.03
2023-03-13T04:13:48.126Z,95781.53
2023-03-13T04:16:16.040Z,95799.59
2023-03-13T04:18:43.910Z,95795.88
2023-03-13T04:21:11.758Z,95797.41
2023-03-13T04:23:39.670Z,95807.94
2023-03-13T04:26:08.913Z,95810.09
2023-03-13T04:28:36.896Z,95793.72
2023-03-13T04:31:04.926Z,95721.06
2023-03-13T04:33:32.807Z,95823.44
2023-03-13T04:36:00.719Z,95819.38
2023-03-13T04:38:28.584Z,95821.53
2023-03-13T04:40:56.470Z,95828.78
2023-03-13T04:43:25.723Z,95833.59
2023-03-13T04:45:55.125Z,95795.88
2023-03-13T04:48:23.290Z,95792.25
2023-03-13T04:50:51.161Z,95845.94
2023-03-13T04:53:19.475Z,95816.19
2023-03-13T04:55:51.014Z,95849.84
2023-03-13T04:58:18.986Z,95826.53
2023-03-13T05:00:56.841Z,95841.88
2023-03-13T05:06:09.971Z,95848.22
2023-03-13T05:08:38.216Z,95831.63
2023-03-13T05:11:06.581Z,95842.84
2023-03-13T05:13:34.514Z,95840.72
2023-03-13T05:16:04.100Z,95853.78
2023-03-13T05:18:32.186Z,95851.38
2023-03-13T05:21:00.225Z,95851.03
2023-03-13T05:23:28.155Z,95869.09
2023-03-13T05:25:56.301Z,95870.16
2023-03-13T05:28:25.395Z,95871.63
2023-03-13T05:30:53.588Z,95878.31
2023-03-13T05:33:22.829Z,95851.66
2023-03-13T05:35:51.266Z,95860.03
2023-03-13T05:38:19.466Z,95828.78
2023-03-13T05:40:47.833Z,95878.38
2023-03-13T05:43:16.288Z,95863.13
2023-03-13T05:45:44.291Z,95891.00
2023-03-13T05:48:25.168Z,95871.31
2023-03-13T05:51:04.247Z,95856.59
2023-03-13T05:53:33.252Z,95892.81
2023-03-13T05:56:02.502Z,95903.38
2023-03-13T05:58:32.278Z,95904.00
2023-03-13T06:01:01.050Z,95893.03
2023-03-13T06:03:34.037Z,95899.88
2023-03-13T06:06:05.492Z,95901.84
2023-03-13T06:08:33.852Z,95902.13
2023-03-13T06:11:02.529Z,95915.63
2023-03-13T06:13:34.815Z,95903.50
2023-03-13T06:16:07.540Z,95898.50
2023-03-13T06:18:36.988Z,95900.97
2023-03-13T06:21:12.743Z,95900.84
2023-03-13T06:23:42.902Z,95874.28
2023-03-13T06:26:11.029Z,95908.56
2023-03-13T06:28:38.977Z,95883.16
2023-03-13T06:31:08.466Z,95917.34
2023-03-13T06:33:37.287Z,95906.47
2023-03-13T06:36:07.583Z,95893.50
2023-03-13T06:38:37.874Z,95875.03
2023-03-13T06:41:09.110Z,95888.88
2023-03-13T06:43:40.713Z,95888.31
2023-03-13T06:46:17.177Z,95891.41
2023-03-13T06:48:51.116Z,95832.00
2023-03-13T06:51:23.362Z,95886.78
2023-03-13T06:53:52.439Z,95887.19
2023-03-13T06:56:30.027Z,95893.59
2023-03-13T06:59:07.393Z,95883.16
2023-03-13T07:01:46.422Z,95877.03
2023-03-13T07:04:27.234Z,95882.31
2023-03-13T07:07:10.458Z,95882.31
2023-03-13T07:09:50.505Z,95873.66
2023-03-13T07:12:21.937Z,95870.25
2023-03-13T07:14:51.579Z,95892.75
2023-03-13T07:17:20.256Z,95862.81
2023-03-13T07:19:50.765Z,95878.72
2023-03-13T07:22:27.590Z,95874.28
2023-03-13T07:24:58.316Z,95884.41
2023-03-13T07:27:29.693Z,95878.84
2023-03-13T07:30:00.423Z,95876.16
2023-03-13T07:32:34.315Z,95874.66
2023-03-13T07:35:05.481Z,95860.94
2023-03-13T07:37:37.047Z,95867.19
2023-03-13T07:40:10.422Z,95744.06
2023-03-13T07:42:41.246Z,95875.19
2023-03-13T07:45:10.884Z,95875.13
2023-03-13T07:47:38.788Z,95888.16
2023-03-13T07:50:08.395Z,95888.03
2023-03-13T07:52:39.332Z,95868.28
2023-03-13T07:55:08.173Z,95884.94
2023-03-13T07:57:36.947Z,95871.34
2023-03-13T08:00:10.149Z,95862.72
2023-03-13T08:02:41.502Z,95861.41
2023-03-13T08:05:10.372Z,95840.31
2023-03-13T08:07:44.375Z,95868.88
2023-03-13T08:10:23.928Z,95860.53
2023-03-13T08:12:57.248Z,95855.53
2023-03-13T08:15:26.516Z,95862.63
2023-03-13T08:18:01.898Z,95861.75
2023-03-13T08:20:32.476Z,95857.00
2023-03-13T08:23:01.759Z,95856.63
2023-03-13T08:25:32.090Z,95855.19
2023-03-13T08:28:02.314Z,95854.13
2023-03-13T08:30:30.491Z,95857.28
2023-03-13T08:32:59.503Z,95846.47
2023-03-13T08:35:28.533Z,95870.63
2023-03-13T08:37:57.261Z,95854.50
2023-03-13T08:40:27.724Z,95869.50
2023-03-13T08:42:57.929Z,95813.03
2023-03-13T08:45:26.658Z,95866.78
2023-03-13T08:47:55.415Z,95859.88
2023-03-13T08:50:24.357Z,95852.91
2023-03-13T08:52:52.402Z,95856.09
2023-03-13T08:55:22.314Z,95843.94
2023-03-13T08:57:52.918Z,95855.69
2023-03-13T09:00:21.538Z,95847.66
2023-03-13T09:02:49.461Z,95851.59
2023-03-13T09:05:17.391Z,95849.69
2023-03-13T09:07:45.305Z,95842.84
2023-03-13T09:10:17.160Z,95854.09
2023-03-13T09:12:47.124Z,95850.44
2023-03-13T09:15:16.733Z,95828.22
2023-03-13T09:17:44.647Z,95847.91
2023-03-13T09:20:13.093Z,95827.94
2023-03-13T09:22:41.005Z,95835.09
2023-03-13T09:25:11.475Z,95820.31
2023-03-13T09:27:40.572Z,95829.06
2023-03-13T09:30:10.242Z,95840.06
2023-03-13T09:32:39.526Z,95804.91
2023-03-13T09:35:08.063Z,95845.69
2023-03-13T09:37:36.155Z,95754.47
2023-03-13T09:40:05.613Z,95843.88
2023-03-13T09:42:41.050Z,95804.78
2023-03-13T09:45:16.385Z,95829.34
2023-03-13T09:47:48.266Z,95832.00
2023-03-13T09:50:20.553Z,95831.97
2023-03-13T09:52:52.473Z,95816.09
2023-03-13T09:55:22.448Z,95825.38
2023-03-13T09:57:54.305Z,95826.84
2023-03-13T10:00:27.504Z,95805.09
2023-03-13T10:03:01.700Z,95790.41
2023-03-13T10:05:31.601Z,95820.13
2023-03-13T10:08:11.386Z,95821.09
2023-03-13T10:10:44.824Z,95816.34
2023-03-13T10:13:21.317Z,95793.84
2023-03-13T10:15:55.297Z,95786.94
2023-03-13T10:18:26.022Z,95797.19
2023-03-13T10:20:58.145Z,95773.50
2023-03-13T10:23:36.654Z,95782.78
2023-03-13T10:26:04.595Z,95785.38
2023-03-13T10:28:32.488Z,95772.88
2023-03-13T10:31:09.485Z,95777.28
2023-03-13T10:33:39.256Z,95768.91
2023-03-13T10:36:09.436Z,95763.56
2023-03-13T10:38:47.682Z,95768.03
2023-03-13T10:41:24.896Z,95765.97
2023-03-13T10:43:54.215Z,95694.38
2023-03-13T10:46:30.112Z,95711.91
2023-03-13T10:49:03.376Z,95747.09
2023-03-13T10:51:37.753Z,95747.31
2023-03-13T10:54:16.224Z,95729.75
2023-03-13T10:56:44.384Z,95687.56
2023-03-13T10:59:25.117Z,95739.94
2023-03-13T11:01:54.194Z,95710.63
2023-03-13T11:04:32.146Z,95730.38
2023-03-13T11:07:03.818Z,95708.94
2023-03-13T11:09:32.330Z,95712.50
2023-03-13T11:12:06.262Z,95627.97
2023-03-13T11:14:35.120Z,95706.53
2023-03-13T11:17:11.369Z,95695.72
2023-03-13T11:19:59.660Z,95709.59
2023-03-13T11:22:47.701Z,95680.66
2023-03-13T11:25:32.783Z,95704.16
2023-03-13T11:28:24.520Z,95688.94
2023-03-13T11:31:04.792Z,95692.78
2023-03-13T11:33:43.068Z,95663.75
2023-03-13T11:36:25.599Z,95664.38
2023-03-13T11:38:56.890Z,95677.69
2023-03-13T11:41:53.431Z,95668.59
2023-03-13T11:44:30.076Z,95658.78
2023-03-13T11:47:13.678Z,95648.50
2023-03-13T11:49:53.241Z,95653.91
2023-03-13T11:52:36.651Z,95646.34
2023-03-13T11:55:24.279Z,95645.72
2023-03-13T11:58:06.158Z,95639.50
2023-03-13T12:00:39.095Z,95644.38
2023-03-13T12:03:17.535Z,95593.53
2023-03-13T12:05:48.669Z,95615.28
2023-03-13T12:08:27.492Z,95625.53
2023-03-13T12:11:07.445Z,95615.22
2023-03-13T12:13:40.447Z,95612.06
2023-03-13T12:16:13.409Z,95615.47
2023-03-13T12:18:43.565Z,95615.31
2023-03-13T12:21:19.412Z,95600.28
2023-03-13T12:23:57.389Z,95606.47
2023-03-13T12:26:35.992Z,95602.19
2023-03-13T12:29:13.018Z,95605.31
2023-03-13T12:31:44.998Z,95593.91
2023-03-13T12:34:19.934Z,95597.31
2023-03-13T12:36:53.008Z,95591.34
2023-03-13T12:39:31.979Z,95602.41
2023-03-13T12:42:14.769Z,95589.53
2023-03-13T12:44:42.730Z,95579.72
2023-03-13T12:47:18.571Z,95583.47
2023-03-13T12:50:20.393Z,95589.91
2023-03-13T12:53:06.408Z,95580.88
2023-03-13T12:56:13.949Z,95583.91
2023-03-13T12:58:48.899Z,95589.06
2023-03-13T13:01:27.470Z,95587.59
2023-03-13T13:03:59.077Z,95592.44
2023-03-13T13:06:29.791Z,95560.28
2023-03-13T13:09:09.438Z,95592.31
2023-03-13T13:11:57.240Z,95589.22
2023-03-13T13:15:06.806Z,95568.19
2023-03-13T13:18:04.522Z,95586.28
2023-03-13T13:20:45.497Z,95559.63
2023-03-13T13:23:37.057Z,95541.72
2023-03-13T13:26:47.763Z,95588.34
2023-03-13T13:29:58.335Z,95582.06
2023-03-13T13:32:42.211Z,95577.28
2023-03-13T13:35:31.639Z,95572.56
2023-03-13T13:38:28.563Z,95566.44
2023-03-13T13:41:02.095Z,95565.75
2023-03-13T13:43:33.811Z,95568.72
2023-03-13T13:46:09.160Z,95566.06
2023-03-13T13:48:43.313Z,95559.66
2023-03-13T13:51:35.703Z,95570.66
2023-03-13T13:54:07.876Z,95563.75
2023-03-13T13:56:48.201Z,95560.81
2023-03-13T13:59:41.191Z,95505.75
2023-03-13T14:02:27.471Z,95547.69
2023-03-13T14:05:08.781Z,95552.13
2023-03-13T14:07:49.532Z,95493.81
2023-03-13T14:10:28.103Z,95554.00
2023-03-13T14:12:57.673Z,95555.22
2023-03-13T14:15:27.482Z,95549.03
2023-03-13T14:18:01.985Z,95548.78
2023-03-13T14:20:39.253Z,95528.66
2023-03-13T14:23:10.048Z,95389.78
2023-03-13T14:25:46.667Z,95538.53
2023-03-13T14:28:27.466Z,95495.81
2023-03-13T14:30:58.326Z,95485.34
2023-03-13T14:33:32.616Z,95539.69
2023-03-13T14:36:06.786Z,95495.16
2023-03-13T14:38:44.094Z,95527.94
2023-03-13T14:41:43.760Z,95467.31
2023-03-13T14:44:18.667Z,95405.06
2023-03-13T14:46:47.232Z,95540.13
2023-03-13T14:49:19.179Z,95523.69
2023-03-13T14:52:01.726Z,95519.38
2023-03-13T14:54:32.760Z,95540.84
2023-03-13T14:57:06.254Z,95529.78
2023-03-13T14:59:36.815Z,95496.25
2023-03-13T15:02:15.825Z,95533.44
2023-03-13T15:04:56.203Z,95385.50
2023-03-13T15:07:30.213Z,95503.97
2023-03-13T15:09:58.337Z,95485.97
2023-03-13T15:12:26.345Z,95534.47
2023-03-13T15:14:54.318Z,95534.31
2023-03-13T15:17:27.741Z,95532.00
2023-03-13T15:19:57.896Z,95534.16
2023-03-13T15:22:38.887Z,95535.84
2023-03-13T15:25:21.143Z,95525.41
2023-03-13T15:27:50.197Z,95539.13
2023-03-13T15:30:19.861Z,95360.28
2023-03-13T15:32:50.588Z,95541.13
2023-03-13T15:35:28.485Z,95422.94
2023-03-13T15:37:59.190Z,95547.22
2023-03-13T15:40:27.996Z,95552.44
2023-03-13T15:42:56.673Z,95562.19
2023-03-13T15:45:24.592Z,95547.31
2023-03-13T15:47:53.000Z,95551.91
2023-03-13T15:50:22.596Z,95527.56
2023-03-13T15:52:50.776Z,95539.25
2023-03-13T15:55:22.438Z,95546.91
2023-03-13T15:57:52.824Z,95551.41
2023-03-13T16:00:22.938Z,95546.00
2023-03-13T16:02:51.115Z,95541.25
2023-03-13T16:05:19.560Z,95527.41
2023-03-13T16:07:48.981Z,95549.00
2023-03-13T16:10:26.194Z,95535.50
2023-03-13T16:12:56.844Z,95535.44
2023-03-13T16:15:25.337Z,95540.25
2023-03-13T16:17:56.561Z,95526.63
2023-03-13T16:20:31.178Z,95531.72
2023-03-13T16:23:06.642Z,95523.47
2023-03-13T16:25:38.618Z,95524.63
2023-03-13T16:28:16.603Z,95524.88
2023-03-13T16:30:47.864Z,95534.44
2023-03-13T16:33:18.670Z,95522.91
2023-03-13T16:35:47.747Z,95451.88
2023-03-13T16:38:20.742Z,95538.63
2023-03-13T16:40:54.328Z,95449.75
2023-03-13T16:43:25.496Z,95516.56
2023-03-13T16:45:55.811Z,95548.19
2023-03-13T16:48:25.039Z,95554.22
2023-03-13T16:50:53.776Z,95558.22
2023-03-13T16:53:22.725Z,95549.69
2023-03-13T16:55:53.690Z,95561.56
2023-03-13T16:58:24.834Z,95564.28
2023-03-13T17:01:04.652Z,95558.41
2023-03-13T17:03:34.327Z,95563.03
2023-03-13T17:06:17.831Z,95572.25
2023-03-13T17:08:51.632Z,95572.75
2023-03-13T17:11:24.114Z,95574.31
2023-03-13T17:13:53.710Z,95542.97
2023-03-13T17:16:24.537Z,95568.31
2023-03-13T17:18:54.564Z,95525.25
2023-03-13T17:21:25.586Z,95551.53
2023-03-13T17:23:54.542Z,95570.38
2023-03-13T17:26:26.127Z,95566.75
2023-03-13T17:28:57.826Z,95569.88
2023-03-13T17:31:28.239Z,95567.06
2023-03-13T17:33:56.326Z,95546.47
2023-03-13T17:36:27.253Z,95571.78
2023-03-13T17:39:00.421Z,95558.81
2023-03-13T17:41:31.914Z,95537.25
2023-03-13T17:44:00.346Z,95582.41
2023-03-13T17:46:34.215Z,95587.44
2023-03-13T17:49:02.687Z,95595.00
2023-03-13T17:51:35.295Z,95578.06
2023-03-13T17:54:04.628Z,95601.94
2023-03-13T17:56:38.848Z,95563.19
2023-03-13T17:59:13.249Z,95601.25
2023-03-13T18:01:43.146Z,95601.09
2023-03-13T18:04:11.870Z,95605.97
2023-03-13T18:06:42.927Z,95599.78
2023-03-13T18:09:15.376Z,95601.31
2023-03-13T18:11:45.596Z,95548.94
2023-03-13T18:14:14.845Z,95597.66
2023-03-13T18:16:48.223Z,95596.06
2023-03-13T18:19:18.617Z,95601.34
2023-03-13T18:21:48.474Z,95596.75
2023-03-13T18:24:20.363Z,95595.63
2023-03-13T18:26:50.713Z,95598.91
2023-03-13T18:29:26.911Z,95604.41
2023-03-13T18:31:56.321Z,95603.44
2023-03-13T18:34:25.875Z,95599.50
2023-03-13T18:36:54.688Z,95607.69
2023-03-13T18:39:23.504Z,95609.00
2023-03-13T18:41:53.145Z,95609.75
2023-03-13T18:44:21.188Z,95625.06
2023-03-13T18:46:50.149Z,95630.94
2023-03-13T18:49:21.706Z,95628.84
2023-03-13T18:51:50.748Z,95625.28
2023-03-13T18:54:18.958Z,95610.81
2023-03-13T18:56:48.468Z,95594.84
2023-03-13T18:59:21.340Z,95639.88
2023-03-13T19:01:49.611Z,95623.31
2023-03-13T19:04:18.396Z,95617.09
2023-03-13T19:06:49.111Z,95617.56
2023-03-13T19:12:08.824Z,95620.94
2023-03-13T19:14:38.252Z,95568.34
2023-03-13T19:17:08.726Z,95529.78
2023-03-13T19:19:36.682Z,95636.00
2023-03-13T19:22:04.598Z,95643.38
2023-03-13T19:24:32.539Z,95636.81
2023-03-13T19:27:00.825Z,95636.19
2023-03-13T19:29:29.849Z,95636.97
2023-03-13T19:32:05.355Z,95633.00
2023-03-13T19:34:33.325Z,95622.47
2023-03-13T19:37:02.620Z,95623.34
2023-03-13T19:39:32.888Z,95607.88
2023-03-13T19:42:00.837Z,95646.13
2023-03-13T19:44:30.684Z,95654.81
2023-03-13T19:47:00.531Z,95655.03
2023-03-13T19:49:31.185Z,95649.16
2023-03-13T19:51:59.103Z,95647.09
2023-03-13T19:54:29.644Z,95633.38
2023-03-13T19:56:57.744Z,95650.72
2023-03-13T19:59:27.795Z,95649.19
2023-03-13T20:01:56.627Z,95630.06
2023-03-13T20:04:28.056Z,95653.91
2023-03-13T20:06:56.449Z,95626.81
2023-03-13T20:09:25.487Z,95647.09
2023-03-13T20:11:53.764Z,95653.06
2023-03-13T20:14:21.793Z,95609.69
2023-03-13T20:16:49.807Z,95653.91
2023-03-13T20:19:18.659Z,95655.94
2023-03-13T20:21:48.222Z,95654.28
2023-03-13T20:24:16.644Z,95649.72
2023-03-13T20:26:44.874Z,95656.59
2023-03-13T20:29:12.748Z,95633.13
2023-03-13T20:31:40.727Z,95646.19
2023-03-13T20:34:09.526Z,95650.19
2023-03-13T20:36:37.553Z,95648.38
2023-03-13T20:39:06.987Z,95649.81
2023-03-13T20:41:35.183Z,95602.69
2023-03-13T20:44:04.539Z,95558.75
2023-03-13T20:46:33.334Z,95582.97
2023-03-13T20:49:03.375Z,95643.91
2023-03-13T20:51:32.646Z,95640.13
2023-03-13T20:54:00.880Z,95637.25
2023-03-13T20:56:30.289Z,95627.06
2023-03-13T20:58:58.331Z,95618.66
2023-03-13T21:01:27.557Z,95614.56
2023-03-13T21:03:55.777Z,95617.84
2023-03-13T21:06:24.019Z,95629.03
2023-03-13T21:08:54.034Z,95605.97
2023-03-13T21:11:24.875Z,95626.44
2023-03-13T21:13:54.175Z,95613.72
2023-03-13T21:16:22.318Z,95625.25
2023-03-13T21:18:52.994Z,95612.47
2023-03-13T21:21:23.145Z,95574.06
2023-03-13T21:23:52.165Z,95589.91
2023-03-13T21:26:20.514Z,95514.69
2023-03-13T21:28:48.629Z,95603.78
2023-03-13T21:31:19.639Z,95597.72
2023-03-13T21:33:48.475Z,95594.31
2023-03-13T21:36:20.687Z,95561.06
2023-03-13T21:38:49.887Z,95615.44
2023-03-13T21:41:20.088Z,95622.66
2023-03-13T21:43:50.894Z,95621.56
2023-03-13T21:46:22.318Z,95591.28
2023-03-13T21:48:50.547Z,95606.97
2023-03-13T21:51:18.596Z,95584.44
2023-03-13T21:53:46.488Z,95605.66
2023-03-13T21:56:15.761Z,95617.31
2023-03-13T21:58:44.196Z,95609.88
2023-03-13T22:01:12.709Z,95608.88
2023-03-13T22:03:42.615Z,95608.41
2023-03-13T22:06:14.563Z,95615.78
2023-03-13T22:08:42.592Z,95606.50
2023-03-13T22:11:10.696Z,95601.38
2023-03-13T22:13:38.616Z,95611.69
2023-03-13T22:16:07.483Z,95592.84
2023-03-13T22:18:35.512Z,95611.97
2023-03-13T22:21:05.296Z,95606.34
2023-03-13T22:23:33.185Z,95609.38
2023-03-13T22:26:01.124Z,95601.06
2023-03-13T22:28:29.039Z,95600.66
2023-03-13T22:30:56.894Z,95580.56
2023-03-13T22:33:24.756Z,95596.47
2023-03-13T22:35:53.204Z,95596.53
2023-03-13T22:38:22.783Z,95603.06
2023-03-13T22:40:59.486Z,95505.84
2023-03-13T22:43:27.690Z,95524.94
2023-03-13T22:45:55.607Z,95597.88
2023-03-13T22:48:23.637Z,95590.69
2023-03-13T22:51:00.022Z,95592.09
2023-03-13T22:53:29.261Z,95598.28
2023-03-13T22:55:57.115Z,95582.03
2023-03-13T22:58:25.112Z,95532.97
2023-03-13T23:00:54.867Z,95578.97
2023-03-13T23:03:23.394Z,95582.47
2023-03-13T23:05:51.270Z,95588.13
2023-03-13T23:08:19.198Z,95587.81
2023-03-13T23:10:48.976Z,95590.09
2023-03-13T23:13:17.276Z,95592.25
2023-03-13T23:15:55.782Z,95584.28
2023-03-13T23:18:24.397Z,95600.03
2023-03-13T23:20:52.814Z,95597.13
2023-03-13T23:23:21.054Z,95600.88
2023-03-13T23:25:50.477Z,95592.94
2023-03-13T23:28:18.419Z,95595.88
2023-03-13T23:30:46.326Z,95561.91
2023-03-13T23:33:14.167Z,95595.31
2023-03-13T23:35:43.906Z,95525.34
2023-03-13T23:38:12.204Z,95579.19
2023-03-13T23:40:40.453Z,95507.38
2023-03-13T23:43:09.682Z,95598.31
2023-03-13T23:45:37.853Z,95573.13
2023-03-13T23:48:06.050Z,95535.53
2023-03-13T23:50:33.947Z,95592.28
2023-03-13T23:53:01.788Z,95582.22
2023-03-13T23:55:29.619Z,95586.00
2023-03-13T23:57:57.510Z,95576.19
